Time;durP1;ratioP1;P1;durP2;ratioP2;P2;SDS_P1;SDS_P2;PMS_P1;PMS_P2;Temp;Humidity;BMP_temperature;BMP_pressure;BME280_temperature;BME280_humidity;BME280_pressure;Samples;Min_cycle;Max_cycle;Signal;HPM_P1;HPM_P2
2021/04/15 00:18:22;;;;;;;15.00;7.90;;;154.50;2176.00;;;;;;3564101;24;20319;-92
2021/04/15 00:21:00;;;;;;;12.13;10.57;;;154.50;2176.00;;;;;;4839998;29;20091;-96
2021/04/15 00:23:33;;;;;;;12.67;8.80;;;154.50;2176.00;;;;;;5029990;24;20062;-95
2021/04/15 00:26:19;;;;;;;9.83;7.73;;;154.50;2176.00;;;;;;4787747;30;20074;-89
2021/04/15 00:29:08;;;;;;;11.97;8.80;;;154.50;2176.00;;;;;;4784144;29;20046;-87
2021/04/15 00:31:35;;;;;;;11.90;8.33;;;154.50;2176.00;;;;;;4740643;29;20028;-96
2021/04/15 00:36:36;;;;;;;11.60;8.30;;;154.50;2176.00;;;;;;5311873;24;20050;-95
2021/04/15 00:39:09;;;;;;;12.33;7.50;;;154.50;2176.00;;;;;;4843698;29;20106;-94
2021/04/15 00:41:38;;;;;;;11.27;8.57;;;154.50;2176.00;;;;;;4825585;29;20123;-96
2021/04/15 00:44:10;;;;;;;13.43;9.10;;;154.50;2176.00;;;;;;4822838;29;20046;-94
2021/04/15 00:46:57;;;;;;;14.10;9.73;;;154.50;2176.00;;;;;;4824906;29;20050;-93
2021/04/15 00:49:44;;;;;;;;;;;;;;;;;;;;;
2021/04/15 00:52:22;;;;;;;11.57;8.60;;;154.50;2176.00;;;;;;4793993;29;20080;-96
2021/04/15 00:54:55;;;;;;;13.40;8.73;;;154.50;2176.00;;;;;;4815422;29;20046;-96
2021/04/15 00:57:30;;;;;;;11.50;8.90;;;179.20;2150.40;;;;;;4816864;29;20039;-95
2021/04/15 01:00:06;;;;;;;10.70;7.50;;;154.50;2150.40;;;;;;4813135;29;20030;-95
2021/04/15 01:02:34;;;;;;;10.50;8.27;;;154.50;2150.40;;;;;;4815351;29;20053;-95
2021/04/15 01:05:14;;;;;;;15.70;9.43;;;179.20;2150.40;;;;;;4816387;29;20038;-96
2021/04/15 01:07:41;;;;;;;12.40;9.40;;;179.50;2201.60;;;;;;4816381;29;20047;-95
2021/04/15 01:10:09;;;;;;;14.53;8.80;;;154.40;2227.20;;;;;;4813639;29;20035;-92
2021/04/15 01:12:58;;;;;;;13.27;10.00;;;154.50;2201.60;;;;;;4799144;29;20047;-96
2021/04/15 01:16:02;;;;;;;14.47;9.63;;;154.50;2201.60;;;;;;4815846;29;20043;-87
2021/04/15 01:18:37;;;;;;;16.57;10.23;;;154.50;2201.60;;;;;;4812092;29;20047;-95
2021/04/15 01:21:22;;;;;;;16.30;10.33;;;179.20;2176.00;;;;;;4812624;29;20034;-95
2021/04/15 01:24:09;;;;;;;13.40;8.83;;;179.20;2176.00;;;;;;4832227;29;20130;-96
2021/04/15 01:26:56;;;;;;;14.27;10.10;;;179.20;2176.00;;;;;;4818935;29;20122;-96
2021/04/15 01:29:50;;;;;;;12.30;9.00;;;179.20;2176.00;;;;;;4823672;29;20064;-95
2021/04/15 01:32:28;;;;;;;;;;;179.20;2176.00;;;;;;4819870;29;20071;-96
2021/04/15 01:35:16;;;;;;;12.50;8.43;;;179.20;2176.00;;;;;;4819457;29;19909;-95
2021/04/15 01:37:50;;;;;;;13.03;9.27;;;179.20;2176.00;;;;;;4815469;29;20062;-95
2021/04/15 01:40:44;;;;;;;12.60;8.13;;;179.20;2150.40;;;;;;4818017;29;20042;-96
2021/04/15 01:43:16;;;;;;;16.77;9.73;;;179.20;2150.40;;;;;;4819504;29;20034;-95
2021/04/15 01:45:44;;;;;;;14.57;10.23;;;179.20;2176.00;;;;;;4833995;29;20042;-96
2021/04/15 01:48:16;;;;;;;13.77;9.10;;;179.30;2176.00;;;;;;4816920;29;20069;-95
2021/04/15 01:51:04;;;;;;;14.57;9.23;;;179.20;2150.40;;;;;;4816611;29;20035;-95
2021/04/15 01:53:42;;;;;;;17.25;9.60;;;179.20;2176.00;;;;;;4816537;29;20133;-96
2021/04/15 01:56:29;;;;;;;13.17;9.10;;;179.20;2150.40;;;;;;4821090;29;20594;-94
2021/04/15 01:59:32;;;;;;;16.30;9.83;;;179.30;2150.40;;;;;;4826751;29;20039;-94
2021/04/15 02:02:23;;;;;;;14.98;7.88;;;179.30;2150.40;;;;;;4830342;29;20083;-96
2021/04/15 02:05:01;;;;;;;10.67;7.80;;;179.20;2150.40;;;;;;4831072;29;20034;-95
2021/04/15 02:07:31;;;;;;;9.67;7.73;;;179.20;2176.00;;;;;;4821700;29;20038;-95
2021/04/15 02:10:00;;;;;;;10.50;8.23;;;179.20;2150.40;;;;;;4829007;29;20345;-96
2021/04/15 02:12:29;;;;;;;12.47;8.23;;;179.30;2176.00;;;;;;4818922;29;20102;-86
2021/04/15 02:15:20;;;;;;;12.00;8.40;;;179.30;2150.40;;;;;;4831356;29;20040;-89
2021/04/15 02:17:48;;;;;;;13.97;9.63;;;179.30;2150.40;;;;;;4834402;29;20053;-85
2021/04/15 02:20:22;;;;;;;15.60;11.10;;;179.20;2150.40;;;;;;4834415;29;20026;-95
2021/04/15 02:23:24;;;;;;;12.53;8.20;;;179.20;2150.40;;;;;;4833384;29;20023;-94
2021/04/15 02:25:57;;;;;;;13.77;9.70;;;179.30;2150.40;;;;;;4762628;30;20033;-86
2021/04/15 02:28:34;;;;;;;14.40;9.53;;;179.20;2124.80;;;;;;4760990;30;20036;-92
2021/04/15 02:31:24;;;;;;;13.13;9.40;;;179.30;2124.80;;;;;;4762027;30;20040;-94
2021/04/15 02:34:17;;;;;;;13.53;8.90;;;179.30;2124.80;;;;;;4754912;30;20050;-95
2021/04/15 02:36:49;;;;;;;;;;;179.30;2124.80;;;;;;4756858;30;20048;-95
2021/04/15 02:39:27;;;;;;;14.37;9.33;;;179.30;2124.80;;;;;;4754795;30;19910;-95
2021/04/15 02:41:54;;;;;;;15.97;10.53;;;179.20;2124.80;;;;;;4756853;30;20066;-95
2021/04/15 02:44:29;;;;;;;13.17;9.83;;;179.20;2124.80;;;;;;4770741;30;20036;-95
2021/04/15 02:47:05;;;;;;;17.80;11.20;;;179.20;2124.80;;;;;;4755877;30;20087;-95
2021/04/15 02:49:35;;;;;;;15.63;9.90;;;179.20;2124.80;;;;;;4772073;30;20114;-96
2021/04/15 02:52:33;;;;;;;16.00;10.87;;;179.20;2124.80;;;;;;4757751;30;20040;-94
2021/04/15 02:55:04;;;;;;;15.77;10.57;;;179.20;2124.80;;;;;;4777639;30;20044;-95
2021/04/15 02:57:45;;;;;;;19.70;11.10;;;154.50;2124.80;;;;;;4777606;30;20066;-96
2021/04/15 03:00:16;;;;;;;19.87;13.23;;;154.50;2124.80;;;;;;4778959;29;20060;-94
2021/04/15 03:03:11;;;;;;;25.87;15.57;;;154.50;2150.40;;;;;;4831306;29;20038;-95
2021/04/15 03:06:03;;;;;;;24.27;14.77;;;154.50;2150.40;;;;;;4843072;29;20137;-95
2021/04/15 03:08:32;;;;;;;25.70;15.53;;;154.50;2124.80;;;;;;4734226;30;20100;-95
2021/04/15 03:11:17;;;;;;;25.77;15.30;;;154.40;2150.40;;;;;;4709879;30;20076;-95
2021/04/15 03:13:53;;;;;;;21.07;14.20;;;154.40;2150.40;;;;;;4739740;30;20043;-95
2021/04/15 03:16:21;;;;;;;17.80;11.93;;;154.50;2150.40;;;;;;4735584;30;20056;-95
2021/04/15 03:18:54;;;;;;;17.63;12.13;;;154.50;2176.00;;;;;;4732399;30;20109;-95
2021/04/15 03:21:26;;;;;;;16.43;11.60;;;154.40;2176.00;;;;;;4725834;30;20048;-95
2021/04/15 03:23:55;;;;;;;16.53;12.00;;;154.40;2150.40;;;;;;4731366;30;20048;-96
2021/04/15 03:26:33;;;;;;;17.23;10.43;;;154.40;2176.00;;;;;;4732175;30;20064;-95
2021/04/15 03:29:11;;;;;;;14.17;9.80;;;154.30;2176.00;;;;;;4731636;30;20044;-94
2021/04/15 03:31:46;;;;;;;14.17;9.83;;;154.30;2176.00;;;;;;4732238;30;20052;-95
2021/04/15 03:34:36;;;;;;;13.07;8.40;;;154.30;2176.00;;;;;;4730550;30;20040;-96
2021/04/15 03:37:07;;;;;;;20.80;14.00;;;154.20;2150.40;;;;;;4730357;30;20080;-93
2021/04/15 03:39:38;;;;;;;15.50;11.73;;;154.20;2124.80;;;;;;4735568;30;20040;-95
2021/04/15 03:42:29;;;;;;;15.87;11.07;;;154.10;2124.80;;;;;;4739218;30;20044;-95
2021/04/15 03:45:04;;;;;;;17.80;11.77;;;154.00;2124.80;;;;;;4776601;29;20102;-95
2021/04/15 03:47:37;;;;;;;15.13;11.13;;;154.00;2150.40;;;;;;4815864;29;20042;-96
2021/04/15 03:50:15;;;;;;;18.63;15.13;;;154.00;2124.80;;;;;;4798797;29;20046;-96
2021/04/15 03:52:45;;;;;;;17.67;11.80;;;154.00;2099.20;;;;;;4814559;29;20046;-95
2021/04/15 03:55:55;;;;;;;16.70;12.57;;;154.00;2124.80;;;;;;4797676;29;20526;-94
2021/04/15 03:58:44;;;;;;;16.10;12.63;;;153.90;2099.20;;;;;;4813107;29;20043;-96
2021/04/15 04:01:23;;;;;;;17.87;12.70;;;153.90;2099.20;;;;;;4815361;29;20039;-96
2021/04/15 04:04:28;;;;;;;29.93;18.53;;;153.80;2099.20;;;;;;4788437;29;20050;-96
2021/04/15 04:06:57;;;;;;;46.07;28.00;;;153.60;2124.80;;;;;;4802196;29;20061;-96
2021/04/15 04:09:30;;;;;;;29.13;17.37;;;153.60;2124.80;;;;;;4796971;29;20045;-96
2021/04/15 04:11:59;;;;;;;21.60;13.60;;;153.60;2124.80;;;;;;4812903;29;20045;-95
2021/04/15 04:14:51;;;;;;;16.23;12.07;;;153.60;2099.20;;;;;;4830258;29;20025;-94
2021/04/15 04:17:36;;;;;;;15.40;10.53;;;153.60;2099.20;;;;;;4830525;29;20050;-93
2021/04/15 04:20:03;;;;;;;16.10;11.43;;;153.70;2099.20;;;;;;4816375;29;20038;-95
2021/04/15 04:22:38;;;;;;;17.13;11.87;;;153.60;2099.20;;;;;;4816156;29;20038;-96
2021/04/15 04:25:42;;;;;;;20.07;13.03;;;153.70;2099.20;;;;;;4817032;29;20035;-96
2021/04/15 04:28:22;;;;;;;18.70;12.57;;;153.70;2124.80;;;;;;4769492;29;20043;-94
2021/04/15 04:30:57;;;;;;;25.63;16.53;;;128.90;2124.80;;;;;;4799071;29;20045;-95
2021/04/15 04:33:37;;;;;;;24.43;16.77;;;153.60;2124.80;;;;;;4818406;29;20072;-96
2021/04/15 04:36:10;;;;;;;26.53;14.87;;;153.60;2150.40;;;;;;4814614;29;20475;-95
2021/04/15 04:38:38;;;;;;;33.20;17.63;;;153.60;2176.00;;;;;;4794339;29;20083;-96
2021/04/15 04:41:15;;;;;;;29.40;18.63;;;153.80;2176.00;;;;;;4798285;29;20047;-87
2021/04/15 04:43:47;;;;;;;33.70;19.37;;;154.00;2150.40;;;;;;4821233;29;20039;-89
2021/04/15 04:46:40;;;;;;;25.00;17.35;;;153.70;2176.00;;;;;;4805057;29;20027;-87
2021/04/15 04:49:11;;;;;;;21.23;13.90;;;153.70;2176.00;;;;;;4794472;29;20043;-88
2021/04/15 04:51:54;;;;;;;21.17;14.27;;;153.70;2176.00;;;;;;4793256;29;20501;-95
2021/04/15 04:54:23;;;;;;;30.42;18.88;;;153.60;2201.60;;;;;;4794928;29;20047;-96
2021/04/15 04:56:59;;;;;;;47.33;27.20;;;153.70;2201.60;;;;;;4792939;29;20128;-95
2021/04/15 04:59:33;;;;;;;51.70;29.30;;;153.70;2227.20;;;;;;4796747;29;20059;-95
2021/04/15 05:01:59;;;;;;;35.17;21.63;;;153.80;2201.60;;;;;;4793082;29;20039;-95
2021/04/15 05:04:45;;;;;;;30.20;20.00;;;153.80;2201.60;;;;;;4780216;30;20097;-94
2021/04/15 05:07:30;;;;;;;24.50;14.90;;;153.90;2201.60;;;;;;4808654;29;20031;-94
2021/04/15 05:09:57;;;;;;;26.43;15.00;;;153.80;2201.60;;;;;;4783160;30;20047;-96
2021/04/15 05:12:32;;;;;;;24.57;14.43;;;153.80;2227.20;;;;;;4808794;29;20054;-86
2021/04/15 05:14:59;;;;;;;21.83;13.77;;;153.90;2227.20;;;;;;4807334;29;20116;-86
2021/04/15 05:17:33;;;;;;;17.57;11.90;;;153.90;2201.60;;;;;;4805770;29;20051;-86
2021/04/15 05:20:02;;;;;;;19.87;13.33;;;154.00;2176.00;;;;;;4805686;29;20054;-88
2021/04/15 05:22:41;;;;;;;23.53;15.23;;;154.10;2176.00;;;;;;4793203;29;20043;-94
2021/04/15 05:25:16;;;;;;;31.53;17.03;;;154.10;2176.00;;;;;;4795753;29;20023;-95
2021/04/15 05:27:47;;;;;;;22.93;14.20;;;154.10;2176.00;;;;;;4809587;29;20028;-88
2021/04/15 05:30:14;;;;;;;24.00;14.27;;;154.10;2201.60;;;;;;4809153;29;20073;-90
2021/04/15 05:32:41;;;;;;;23.23;14.97;;;154.40;2176.00;;;;;;4810300;29;20023;-96
2021/04/15 05:35:12;;;;;;;20.43;13.50;;;154.10;2176.00;;;;;;4809794;29;20091;-90
2021/04/15 05:37:38;;;;;;;19.80;13.17;;;154.20;2176.00;;;;;;4811142;29;20066;-91
2021/04/15 05:40:04;;;;;;;21.07;14.37;;;154.30;2176.00;;;;;;4809892;29;20044;-93
2021/04/15 05:42:39;;;;;;;22.87;14.63;;;154.50;2150.40;;;;;;4809812;29;20028;-94
2021/04/15 05:45:23;;;;;;;19.77;13.33;;;154.40;2124.80;;;;;;4811057;29;20050;-95
2021/04/15 05:47:52;;;;;;;23.15;12.88;;;154.50;2073.60;;;;;;4806342;29;20027;-94
2021/04/15 05:50:39;;;;;;;20.17;12.13;;;179.20;2048.00;;;;;;4805753;29;20049;-95
2021/04/15 05:53:14;;;;;;;19.47;13.47;;;179.20;1996.80;;;;;;4794713;30;20040;-96
2021/04/15 05:55:48;;;;;;;18.93;12.20;;;179.20;1971.20;;;;;;4789477;30;20058;-93
2021/04/15 05:58:26;;;;;;;24.23;17.37;;;179.30;1971.20;;;;;;4790814;30;20043;-86
2021/04/15 06:01:03;;;;;;;19.57;12.43;;;179.30;1971.20;;;;;;4808385;29;20047;-93
2021/04/15 06:03:37;;;;;;;37.47;29.00;;;179.40;1971.20;;;;;;4807092;29;20030;-94
2021/04/15 06:06:10;;;;;;;31.37;19.70;;;179.40;1920.00;;;;;;4811343;29;20035;-89
2021/04/15 06:08:42;;;;;;;22.33;12.77;;;179.50;1920.00;;;;;;4810969;29;20050;-93
2021/04/15 06:11:32;;;;;;;28.50;18.90;;;179.50;1971.20;;;;;;4810510;29;20071;-88
2021/04/15 06:14:04;;;;;;;20.23;13.07;;;179.50;1894.40;;;;;;4788342;30;20455;-94
2021/04/15 06:16:35;;;;;;;16.43;9.23;;;179.60;1868.80;;;;;;4779711;30;20047;-96
2021/04/15 06:19:04;;;;;;;20.47;10.13;;;179.60;1868.80;;;;;;4777291;29;20039;-94
2021/04/15 06:22:06;;;;;;;15.37;9.07;;;179.60;1843.20;;;;;;4777986;30;20043;-95
2021/04/15 06:24:32;;;;;;;15.07;9.73;;;179.80;1843.20;;;;;;4787296;30;20039;-93
2021/04/15 06:27:03;;;;;;;12.87;8.67;;;179.90;1817.60;;;;;;4780171;30;20068;-90
2021/04/15 06:29:34;;;;;;;17.23;10.47;;;179.90;1817.60;;;;;;4791505;29;20172;-91
2021/04/15 06:32:11;;;;;;;16.07;9.40;;;180.00;1792.00;;;;;;4792816;29;20085;-89
2021/04/15 06:34:58;;;;;;;14.50;10.10;;;180.10;1766.40;;;;;;4801317;29;20081;-91
2021/04/15 06:48:15;;;;;;;13.37;8.17;;;204.90;1689.60;;;;;;4781357;30;20035;-90
2021/04/15 07:11:52;;;;;;;37.80;19.00;;;204.80;1664.00;;;;;;4737086;30;20039;-90
2021/04/15 07:14:46;;;;;;;23.13;13.20;;;204.80;1689.60;;;;;;4721862;30;20073;-87
2021/04/15 07:17:48;;;;;;;20.20;12.00;;;204.90;1689.60;;;;;;4681560;30;20065;-94
2021/04/15 07:20:14;;;;;;;25.13;16.33;;;205.00;1689.60;;;;;;4684674;30;20068;-92
2021/04/15 07:23:13;;;;;;;118.60;48.87;;;205.00;1689.60;;;;;;4726926;30;20136;-92
2021/04/15 07:25:39;;;;;;;22.17;12.17;;;204.90;1689.60;;;;;;4752573;30;20051;-89
2021/04/15 07:28:42;;;;;;;18.40;11.40;;;205.00;1664.00;;;;;;4753514;30;20036;-88
2021/04/15 07:31:34;;;;;;;16.73;10.07;;;204.90;1638.40;;;;;;4702488;30;20063;-85
2021/04/15 07:34:32;;;;;;;13.47;8.07;;;205.00;1664.00;;;;;;4687083;30;20041;-85
2021/04/15 07:37:48;;;;;;;13.67;8.23;;;204.90;1638.40;;;;;;4736241;30;20064;-93
2021/04/15 07:40:25;;;;;;;17.47;10.63;;;205.00;1612.80;;;;;;4735799;30;20197;-91
2021/04/15 07:43:00;;;;;;;20.10;11.80;;;205.00;1638.40;;;;;;4735826;30;20091;-91
2021/04/15 07:45:48;;;;;;;17.92;9.15;;;205.00;1638.40;;;;;;4735446;30;20068;-91
2021/04/15 07:48:37;;;;;;;15.80;10.50;;;204.90;1587.20;;;;;;4735952;30;20037;-85
2021/04/15 07:51:39;;;;;;;13.50;7.93;;;205.10;1612.80;;;;;;4735502;30;20041;-86
2021/04/15 07:54:19;;;;;;;15.40;9.23;;;205.20;1612.80;;;;;;4718639;30;20082;-86
2021/04/15 07:56:55;;;;;;;16.63;10.55;;;205.20;1612.80;;;;;;4740156;30;20048;-85
2021/04/15 07:59:33;;;;;;;21.50;13.83;;;205.30;1612.80;;;;;;4761027;30;20044;-88
2021/04/15 08:02:29;;;;;;;17.43;11.93;;;205.20;1612.80;;;;;;4759416;30;20098;-89
2021/04/15 08:05:32;;;;;;;14.50;9.83;;;205.10;1587.20;;;;;;4738353;30;20065;-89
2021/04/15 08:08:13;;;;;;;14.80;10.00;;;205.20;1638.40;;;;;;4726876;30;20045;-89
2021/04/15 08:26:58;;;;;;;17.37;10.63;;;205.40;1561.60;;;;;;5654839;24;20409;-84
2021/04/15 08:29:39;;;;;;;26.67;16.37;;;205.60;1561.60;;;;;;4774248;30;20505;-89
2021/04/15 08:32:23;;;;;;;17.20;10.10;;;230.40;1561.60;;;;;;4789943;30;20043;-91
2021/04/15 08:35:26;;;;;;;11.90;7.90;;;230.50;1510.40;;;;;;4774022;30;20043;-89
2021/04/15 08:38:10;;;;;;;15.07;10.05;;;230.50;1459.20;;;;;;4773550;30;20047;-90
2021/04/15 08:41:05;;;;;;;13.23;9.02;;;230.70;1433.60;;;;;;4755766;30;20071;-90
2021/04/15 08:43:38;;;;;;;13.50;8.07;;;230.70;1459.20;;;;;;4757530;30;20046;-89
2021/04/15 08:46:17;;;;;;;11.32;7.05;;;230.70;1408.00;;;;;;4763590;30;20093;-91
2021/04/15 08:49:00;;;;;;;19.27;11.70;;;230.70;1382.40;;;;;;4772655;30;20024;-90
2021/04/15 08:55:17;;;;;;;12.23;7.85;;;231.00;1382.40;;;;;;4777558;30;20101;-91
2021/04/15 08:58:15;;;;;;;20.00;13.07;;;231.10;1356.80;;;;;;4769699;30;20051;-88
2021/04/15 09:01:11;;;;;;;12.90;8.30;;;231.20;1331.20;;;;;;4773071;30;20028;-91
2021/04/15 09:04:24;;;;;;;23.38;14.65;;;256.00;1331.20;;;;;;4776857;29;20054;-86
2021/04/15 09:07:09;;;;;;;17.95;9.70;;;256.20;1331.20;;;;;;4724421;30;20025;-88
2021/04/15 09:17:34;;;;;;;;;;;;;;;;;;;;;
2021/04/15 09:24:22;;;;;;;16.17;10.05;;;256.30;1305.60;;;;;;4699682;30;20183;-88
2021/04/15 09:27:26;;;;;;;15.48;10.18;;;256.20;1305.60;;;;;;4732005;30;20061;-89
2021/04/15 09:36:53;;;;;;;19.38;12.43;;;231.30;1331.20;;;;;;4681638;30;20057;-85
2021/04/15 09:39:48;;;;;;;14.90;10.35;;;231.20;1305.60;;;;;;4666883;30;20048;-93
2021/04/15 09:42:38;;;;;;;15.15;9.10;;;231.20;1305.60;;;;;;4661090;30;20486;-85
2021/04/15 09:45:24;;;;;;;15.52;11.00;;;231.30;1356.80;;;;;;4652674;30;20042;-85
2021/04/15 09:48:17;;;;;;;11.15;8.80;;;231.10;1305.60;;;;;;4659737;30;20046;-86
2021/04/15 09:51:01;;;;;;;19.00;13.10;;;231.30;1305.60;;;;;;4654256;30;20053;-86
2021/04/15 09:53:49;;;;;;;13.02;9.45;;;256.00;1305.60;;;;;;4637688;30;20047;-87
2021/04/15 09:56:58;;;;;;;20.73;11.45;;;256.00;1305.60;;;;;;4651234;30;20054;-86
2021/04/15 09:59:30;;;;;;;13.98;10.13;;;256.20;1305.60;;;;;;4660071;30;20156;-89
2021/04/15 10:02:36;;;;;;;11.38;9.20;;;256.20;1280.00;;;;;;4685213;30;20042;-90
2021/04/15 10:05:07;;;;;;;13.50;7.25;;;256.40;1254.40;;;;;;4667344;30;20536;-91
2021/04/15 10:07:50;;;;;;;14.23;7.65;;;256.40;1228.80;;;;;;4721059;30;20074;-91
2021/04/15 10:10:49;;;;;;;14.33;7.93;;;256.60;1254.40;;;;;;4707173;30;20087;-92
2021/04/15 10:13:48;;;;;;;18.80;10.75;;;256.30;1228.80;;;;;;4688608;30;20046;-93
2021/04/15 10:16:42;;;;;;;15.60;10.30;;;256.20;1280.00;;;;;;4683567;30;20064;-90
2021/04/15 10:19:34;;;;;;;14.98;10.45;;;256.20;1254.40;;;;;;4686371;30;20124;-93
2021/04/15 10:22:27;;;;;;;12.03;8.37;;;256.20;1254.40;;;;;;4675679;30;20035;-94
2021/04/15 10:24:57;;;;;;;12.05;7.88;;;256.10;1203.20;;;;;;4668773;30;20504;-83
2021/04/15 10:27:29;;;;;;;16.52;9.00;;;231.30;1228.80;;;;;;4676167;30;20058;-88
2021/04/15 10:30:22;;;;;;;10.38;7.40;;;256.00;1203.20;;;;;;4675073;30;20106;-88
2021/04/15 10:33:08;;;;;;;16.33;8.60;;;256.20;1203.20;;;;;;4667719;30;20054;-89
2021/04/15 10:36:21;;;;;;;9.38;6.13;;;256.30;1177.60;;;;;;4672340;30;20050;-88
2021/04/15 10:39:14;;;;;;;8.95;6.35;;;256.60;1152.00;;;;;;4669879;30;20137;-87
2021/04/15 10:42:16;;;;;;;5.97;4.72;;;256.80;1152.00;;;;;;4684821;30;20512;-87
2021/04/15 10:44:45;;;;;;;7.27;5.70;;;256.90;1100.80;;;;;;4684614;30;20038;-87
2021/04/15 10:47:44;;;;;;;12.18;5.50;;;256.60;1075.20;;;;;;4684281;30;20857;-90
2021/04/15 10:50:28;;;;;;;17.85;8.25;;;256.60;1100.80;;;;;;4670560;30;20041;-89
2021/04/15 10:53:13;;;;;;;11.75;6.70;;;256.90;1075.20;;;;;;4636247;30;20116;-85
2021/04/15 10:55:48;;;;;;;13.63;7.60;;;281.60;1152.00;;;;;;4650194;30;20075;-87
2021/04/15 10:58:44;;;;;;;8.88;5.55;;;281.70;1152.00;;;;;;4663327;30;20126;-90
2021/04/15 11:01:24;;;;;;;10.77;6.13;;;281.60;1100.80;;;;;;4704315;30;20036;-90
2021/04/15 11:03:51;;;;;;;15.63;8.98;;;256.80;1152.00;;;;;;4705754;30;20099;-90
2021/04/15 11:06:53;;;;;;;9.18;6.15;;;256.70;1228.80;;;;;;4710264;30;20044;-90
2021/04/15 11:09:28;;;;;;;10.93;7.35;;;256.60;1228.80;;;;;;4689739;30;20072;-91
2021/04/15 11:12:02;;;;;;;13.48;8.35;;;256.60;1228.80;;;;;;4721054;30;20036;-89
2021/04/15 11:14:35;;;;;;;14.85;8.05;;;256.60;1280.00;;;;;;4718993;30;20041;-86
2021/04/15 11:17:04;;;;;;;15.05;11.02;;;282.20;1510.40;;;;;;4733324;30;20068;-88
2021/04/15 11:19:30;;;;;;;15.77;11.27;;;282.00;1254.40;;;;;;4714410;30;20041;-88
2021/04/15 11:22:18;;;;;;;12.68;8.45;;;281.90;1203.20;;;;;;4707589;30;20057;-93
2021/04/15 11:24:48;;;;;;;14.95;9.50;;;281.80;1203.20;;;;;;4719359;30;20069;-87
2021/04/15 11:27:35;;;;;;;15.65;11.10;;;281.70;1228.80;;;;;;4706050;30;20140;-86
2021/04/15 11:30:01;;;;;;;22.92;13.57;;;281.70;1254.40;;;;;;4707814;30;20499;-86
2021/04/15 11:32:36;;;;;;;23.90;16.75;;;282.00;1228.80;;;;;;4704560;30;20041;-89
2021/04/15 11:35:14;;;;;;;40.15;28.35;;;282.30;1177.60;;;;;;4705250;30;20109;-89
2021/04/15 11:37:42;;;;;;;14.15;9.23;;;282.40;1203.20;;;;;;4716632;30;20145;-87
2021/04/15 11:40:37;;;;;;;13.10;8.98;;;282.50;1177.60;;;;;;4722173;30;20063;-85
2021/04/15 11:43:35;;;;;;;31.90;21.73;;;307.60;1126.40;;;;;;4739591;30;20047;-89
2021/04/15 11:46:32;;;;;;;27.40;16.40;;;333.00;1228.80;;;;;;4795421;30;20053;-91
2021/04/15 11:49:12;;;;;;;21.73;15.57;;;333.50;1203.20;;;;;;4775810;30;20043;-93
2021/04/15 11:51:59;;;;;;;9.27;6.53;;;358.70;1254.40;;;;;;4773788;30;20054;-91
2021/04/15 11:54:37;;;;;;;9.98;6.55;;;358.50;1203.20;;;;;;4763667;30;20082;-88
2021/04/15 11:57:25;;;;;;;45.03;9.70;;;333.10;1075.20;;;;;;4757114;30;20126;-85
2021/04/15 11:59:59;;;;;;;16.70;8.27;;;332.90;1152.00;;;;;;4757232;30;20476;-85
2021/04/15 12:02:44;;;;;;;12.13;8.82;;;308.10;1100.80;;;;;;4767729;30;20472;-87
2021/04/15 12:05:19;;;;;;;12.80;8.55;;;307.90;1126.40;;;;;;4775488;30;20047;-85
2021/04/15 12:08:02;;;;;;;12.77;8.27;;;307.60;1177.60;;;;;;4783531;29;20074;-82
2021/04/15 12:10:38;;;;;;;10.60;6.95;;;307.70;1228.80;;;;;;4774277;30;20055;-83
2021/04/15 12:13:15;;;;;;;12.27;6.38;;;307.50;1203.20;;;;;;4776030;30;20032;-83
2021/04/15 12:15:48;;;;;;;16.17;8.18;;;307.20;1177.60;;;;;;4769322;30;20047;-87
2021/04/15 12:18:39;;;;;;;12.75;8.13;;;282.30;1177.60;;;;;;4771989;30;20185;-82
2021/04/15 12:21:20;;;;;;;14.23;9.75;;;282.30;1228.80;;;;;;4765750;30;20059;-84
2021/04/15 12:24:01;;;;;;;7.97;6.05;;;282.40;1152.00;;;;;;4772176;30;20387;-83
2021/04/15 12:27:08;;;;;;;16.75;12.65;;;307.30;1177.60;;;;;;4771565;30;20051;-87
2021/04/15 12:29:47;;;;;;;7.45;5.45;;;307.20;1152.00;;;;;;4739469;30;20032;-88
2021/04/15 12:32:37;;;;;;;12.90;7.25;;;282.30;1126.40;;;;;;4751592;30;20076;-96
2021/04/15 12:35:07;;;;;;;18.27;6.75;;;282.40;1126.40;;;;;;4742899;30;20051;-87
2021/04/15 12:37:44;;;;;;;9.57;7.35;;;282.50;1126.40;;;;;;4751462;30;20052;-84
2021/04/15 12:40:23;;;;;;;15.35;8.43;;;282.30;1100.80;;;;;;4736016;30;20043;-85
2021/04/15 12:42:52;;;;;;;37.78;21.55;;;282.30;1177.60;;;;;;4737967;30;20048;-84
2021/04/15 12:45:38;;;;;;;23.58;12.70;;;282.30;1203.20;;;;;;4745542;30;20047;-84
2021/04/15 12:48:06;;;;;;;10.88;7.85;;;282.30;1228.80;;;;;;4739878;30;20082;-86
2021/04/15 12:50:33;;;;;;;15.85;6.47;;;282.20;1177.60;;;;;;4742189;30;20041;-84
2021/04/15 12:52:59;;;;;;;13.90;7.20;;;307.20;1228.80;;;;;;4738830;30;20442;-87
2021/04/15 12:55:27;;;;;;;10.20;5.85;;;307.40;1228.80;;;;;;4736828;30;20097;-90
2021/04/15 12:57:55;;;;;;;12.20;7.75;;;307.30;1203.20;;;;;;4736795;30;20051;-86
2021/04/15 13:00:38;;;;;;;8.93;6.22;;;307.40;1203.20;;;;;;4752857;30;20040;-88
2021/04/15 13:03:17;;;;;;;10.45;6.75;;;307.40;1203.20;;;;;;4753939;30;20040;-93
2021/04/15 13:05:49;;;;;;;14.40;6.35;;;307.20;1177.60;;;;;;4777353;29;20035;-85
2021/04/15 13:08:33;;;;;;;18.50;9.27;;;307.30;1177.60;;;;;;4790252;30;20039;-90
2021/04/15 13:11:09;;;;;;;6.80;5.10;;;282.40;1203.20;;;;;;4788127;30;20039;-85
2021/04/15 13:13:43;;;;;;;8.98;6.25;;;282.20;1126.40;;;;;;4789614;30;20096;-89
2021/04/15 13:16:34;;;;;;;33.75;10.95;;;282.20;1177.60;;;;;;4785234;29;20047;-88
2021/04/15 13:19:00;;;;;;;11.40;8.27;;;282.00;1254.40;;;;;;4772464;29;20043;-86
2021/04/15 13:21:35;;;;;;;11.65;6.38;;;282.00;1280.00;;;;;;4783846;29;20040;-91
2021/04/15 13:24:21;;;;;;;15.70;7.95;;;282.20;1280.00;;;;;;4772925;30;20044;-90
2021/04/15 13:26:47;;;;;;;17.67;12.80;;;282.10;1254.40;;;;;;4789109;29;20120;-88
2021/04/15 13:29:17;;;;;;;14.07;9.70;;;282.20;1254.40;;;;;;4786998;30;20505;-92
2021/04/15 13:32:04;;;;;;;10.32;7.35;;;282.20;1254.40;;;;;;4785891;30;20092;-88
2021/04/15 13:38:02;;;;;;;14.15;9.13;;;282.20;1228.80;;;;;;4859141;24;20057;-88
2021/04/15 13:40:57;;;;;;;11.30;8.05;;;282.20;1228.80;;;;;;4809080;29;20534;-86
2021/04/15 13:47:27;;;;;;;18.85;11.13;;;282.40;1254.40;;;;;;4764978;30;20032;-90
2021/04/15 13:49:56;;;;;;;383.65;46.95;;;282.50;1228.80;;;;;;4769870;30;20027;-86
2021/04/15 13:52:34;;;;;;;31.60;9.93;;;282.50;1228.80;;;;;;4762812;30;20089;-89
2021/04/15 14:01:45;;;;;;;102.95;17.90;;;307.60;1152.00;;;;;;5181072;24;20069;-88
2021/04/15 14:14:27;;;;;;;9.90;7.05;;;307.80;1177.60;;;;;;4913147;24;20043;-87
2021/04/15 14:33:40;;;;;;;28.92;16.15;;;281.60;1305.60;;;;;;4806095;29;20054;-84
2021/04/15 14:36:32;;;;;;;44.83;28.23;;;281.70;1331.20;;;;;;4794959;29;20053;-89
2021/04/15 14:39:17;;;;;;;26.10;15.23;;;281.60;1382.40;;;;;;4803905;29;20043;-84
2021/04/15 14:41:52;;;;;;;10.75;7.18;;;281.60;1408.00;;;;;;4812839;29;20558;-89
2021/04/15 14:44:20;;;;;;;10.68;6.68;;;281.70;1356.80;;;;;;4813718;29;20031;-94
2021/04/15 14:46:46;;;;;;;13.43;7.18;;;256.90;1305.60;;;;;;4814357;29;20050;-89
2021/04/15 14:49:25;;;;;;;14.27;6.72;;;281.60;1408.00;;;;;;4815346;29;20029;-88
2021/04/15 14:51:51;;;;;;;12.70;7.13;;;256.90;1331.20;;;;;;4800933;29;20092;-87
2021/04/15 14:54:24;;;;;;;8.73;6.55;;;281.70;1356.80;;;;;;4792995;29;20039;-88
2021/04/15 14:56:52;;;;;;;12.65;8.13;;;281.60;1331.20;;;;;;4807026;29;20061;-84
2021/04/15 14:59:26;;;;;;;21.92;8.48;;;281.60;1356.80;;;;;;4805273;29;20026;-83
2021/04/15 15:02:03;;;;;;;11.48;6.18;;;281.60;1408.00;;;;;;4782437;29;20058;-86
2021/04/15 15:04:35;;;;;;;34.50;10.27;;;281.60;1433.60;;;;;;4782549;29;20046;-88
2021/04/15 15:07:04;;;;;;;14.43;8.52;;;256.90;1433.60;;;;;;4802783;29;20104;-95
2021/04/15 15:09:44;;;;;;;14.10;10.75;;;281.60;1433.60;;;;;;4782734;29;20039;-86
2021/04/15 15:13:06;;;;;;;8.57;6.00;;;256.50;1433.60;;;;;;4786341;29;20061;-91
2021/04/15 15:20:14;;;;;;;;;;;;;;;;;;;;;
2021/04/15 15:23:09;;;;;;;44.17;12.27;;;256.30;1433.60;;;;;;4690817;30;20145;-88
2021/04/15 15:39:10;;;;;;;15.68;11.30;;;282.00;1459.20;;;;;;5204983;24;20066;-90
2021/04/15 15:44:58;;;;;;;8.55;6.03;;;282.20;1433.60;;;;;;4824978;29;20046;-93